sensor_id;sensor_type;location;lat;lon;timestamp;P1;durP1;ratioP1;P2;durP2;ratioP2
44858;SDS011;30595;52.478;13.524;2022-08-21T00:04:04;196.93;;;131.93;;
44858;SDS011;30595;52.478;13.524;2022-08-21T00:29:09;182.68;;;129.00;;
44858;SDS011;30595;52.478;13.524;2022-08-21T00:54:14;183.50;;;129.02;;
44858;SDS011;30595;52.478;13.524;2022-08-21T01:19:21;184.93;;;130.70;;
44858;SDS011;30595;52.478;13.524;2022-08-21T01:44:26;178.70;;;128.20;;
44858;SDS011;30595;52.478;13.524;2022-08-21T02:09:30;181.52;;;128.38;;
44858;SDS011;30595;52.478;13.524;2022-08-21T02:34:35;178.27;;;128.40;;
44858;SDS011;30595;52.478;13.524;2022-08-21T02:59:39;181.85;;;127.70;;
44858;SDS011;30595;52.478;13.524;2022-08-21T03:24:44;174.18;;;124.95;;
44858;SDS011;30595;52.478;13.524;2022-08-21T03:49:52;182.30;;;127.13;;
44858;SDS011;30595;52.478;13.524;2022-08-21T04:14:57;175.70;;;124.72;;
44858;SDS011;30595;52.478;13.524;2022-08-21T04:40:01;178.32;;;125.38;;
44858;SDS011;30595;52.478;13.524;2022-08-21T05:05:07;183.32;;;125.07;;
44858;SDS011;30595;52.478;13.524;2022-08-21T05:30:11;178.27;;;124.18;;
44858;SDS011;30595;52.478;13.524;2022-08-21T05:55:16;185.68;;;125.55;;
44858;SDS011;30595;52.478;13.524;2022-08-21T06:20:21;177.70;;;125.47;;
44858;SDS011;30595;52.478;13.524;2022-08-21T06:45:26;179.45;;;126.53;;
44858;SDS011;30595;52.478;13.524;2022-08-21T07:10:34;181.88;;;128.52;;
44858;SDS011;30595;52.478;13.524;2022-08-21T07:35:38;200.13;;;131.27;;
44858;SDS011;30595;52.478;13.524;2022-08-21T08:00:42;183.80;;;131.02;;
44858;SDS011;30595;52.478;13.524;2022-08-21T08:25:47;192.25;;;132.27;;
44858;SDS011;30595;52.478;13.524;2022-08-21T08:50:52;211.53;;;150.13;;
44858;SDS011;30595;52.478;13.524;2022-08-21T09:15:59;207.48;;;137.65;;
44858;SDS011;30595;52.478;13.524;2022-08-21T09:41:07;223.77;;;140.30;;
44858;SDS011;30595;52.478;13.524;2022-08-21T10:06:20;216.88;;;136.75;;
44858;SDS011;30595;52.478;13.524;2022-08-21T10:31:27;195.18;;;134.00;;
44858;SDS011;30595;52.478;13.524;2022-08-21T10:56:33;228.43;;;139.60;;
44858;SDS011;30595;52.478;13.524;2022-08-21T11:21:39;225.70;;;139.80;;
44858;SDS011;30595;52.478;13.524;2022-08-21T11:46:48;241.40;;;143.02;;
44858;SDS011;30595;52.478;13.524;2022-08-21T12:11:59;225.80;;;141.02;;
44858;SDS011;30595;52.478;13.524;2022-08-21T12:37:09;200.30;;;135.30;;
44858;SDS011;30595;52.478;13.524;2022-08-21T13:02:17;182.98;;;130.27;;
44858;SDS011;30595;52.478;13.524;2022-08-21T13:27:25;187.70;;;133.45;;
44858;SDS011;30595;52.478;13.524;2022-08-21T13:52:29;187.25;;;133.07;;
44858;SDS011;30595;52.478;13.524;2022-08-21T14:17:35;179.20;;;130.63;;
44858;SDS011;30595;52.478;13.524;2022-08-21T14:42:41;205.77;;;135.20;;
44858;SDS011;30595;52.478;13.524;2022-08-21T15:07:45;205.68;;;135.55;;
44858;SDS011;30595;52.478;13.524;2022-08-21T15:32:49;204.70;;;136.13;;
44858;SDS011;30595;52.478;13.524;2022-08-21T15:57:54;200.57;;;134.65;;
44858;SDS011;30595;52.478;13.524;2022-08-21T16:23:02;206.05;;;135.82;;
44858;SDS011;30595;52.478;13.524;2022-08-21T16:48:06;243.00;;;143.13;;
44858;SDS011;30595;52.478;13.524;2022-08-21T17:13:11;201.05;;;132.85;;
44858;SDS011;30595;52.478;13.524;2022-08-21T17:38:15;221.45;;;136.68;;
44858;SDS011;30595;52.478;13.524;2022-08-21T18:03:21;192.75;;;131.45;;
44858;SDS011;30595;52.478;13.524;2022-08-21T18:28:26;213.15;;;135.55;;
44858;SDS011;30595;52.478;13.524;2022-08-21T18:53:30;204.27;;;133.30;;
44858;SDS011;30595;52.478;13.524;2022-08-21T19:18:39;196.30;;;131.10;;
44858;SDS011;30595;52.478;13.524;2022-08-21T19:43:45;210.07;;;133.05;;
44858;SDS011;30595;52.478;13.524;2022-08-21T20:08:52;187.40;;;129.00;;
44858;SDS011;30595;52.478;13.524;2022-08-21T20:33:57;221.40;;;133.77;;
44858;SDS011;30595;52.478;13.524;2022-08-21T20:59:02;208.75;;;131.07;;
44858;SDS011;30595;52.478;13.524;2022-08-21T21:24:17;196.40;;;130.82;;
44858;SDS011;30595;52.478;13.524;2022-08-21T21:49:34;204.93;;;145.73;;
44858;SDS011;30595;52.478;13.524;2022-08-21T22:14:40;182.07;;;126.25;;
44858;SDS011;30595;52.478;13.524;2022-08-21T22:39:48;178.20;;;125.93;;
44858;SDS011;30595;52.478;13.524;2022-08-21T23:05:00;179.15;;;125.88;;
44858;SDS011;30595;52.478;13.524;2022-08-21T23:30:06;185.57;;;127.80;;
44858;SDS011;30595;52.478;13.524;2022-08-21T23:55:32;178.77;;;125.80;;
